Cedar City, Utah Weather observations

Data are for observation ending at time listed.
 Day   Time    Ave.   Ave.  Ave.  Vector   Max.   Stn.    Total    Solar   Ave.  
  of    of     Air    Rel.  Wind   Wind    Wind   Baro.  Precip.   Rad.    Soil  
Year   Day     Temp.  Hum.  Speed  Dir.    Gust   Pres.                    Temp. 
2015   (MST)    F      %     mph   deg.    mph     mb.     in.     W/m2     F   
------------------------------------------------------------------------------
 142    9:40   56.2    36    4.1   218      8.3   818.6    0.00     436    58.0
 142    9:50   57.2    33    3.5   222      7.8   818.6    0.00     300    58.2
 142   10:00   57.0    31    3.2   222      7.1   818.6    0.00     252    58.3
 142   10:10   56.6    32    3.3   264      6.9   818.5    0.00     243    58.3
 142   10:20   56.5    33    2.8   272      6.6   818.5    0.00     268    58.4
 142   10:30   56.5    33    4.4   271      7.8   818.5    0.00     280    58.5
 142   10:40   56.2    36    3.8   244     10.1   818.5    0.00     365    58.6
 142   10:50   57.5    35    3.0   324      6.6   818.5    0.00     844    58.7
 142   11:00   57.7    33    2.4    28      6.5   818.3    0.00     329    58.8
 142   11:10   57.6    34    1.7    23      5.5   818.2    0.00     346    58.8
 142   11:20   57.4    34    3.3   352      7.4   818.1    0.00     376    58.8
 142   11:30   57.2    33    3.1    31      6.5   818.1    0.00     310    58.9
 142   11:40   57.1    34    3.5    36      7.7   818.1    0.00     321    58.9
 142   11:50   57.4    33    2.2    14      4.8   818.1    0.00     256    59.0
 142   12:00   56.7    35    4.3   296     12.2   818.2    0.00     235    59.0
 142   12:10   56.1    38    5.4   246     15.7   818.2    0.00     273    59.1
 142   12:20   55.6    38    3.6   274      9.2   818.0    0.00     265    59.1
 142   12:30   56.3    37    3.0   134      6.4   818.0    0.00     217    59.2
 142   12:40   56.1    37    3.2   121      6.9   817.9    0.00     261    59.3
 142   12:50   55.8    46    4.1   212     13.2   818.1    0.00     200    59.3
 142   13:00   54.3    48    2.1   117      7.0   818.0    0.00     489    59.3
 142   13:10   55.0    46    3.1    63      6.1   817.8    0.00     392    59.4
 142   13:20   55.8    43    1.8   269      6.1   817.7    0.00     640    59.5
 142   13:30   58.3    37    2.2    70      5.4   817.6    0.00    1086    59.6
 142   13:40   56.8    36    3.2    45      5.5   817.6    0.00     234    59.5
 142   13:50   56.3    38    3.3   115      6.8   817.7    0.00     101    59.5
 142   14:00   54.7    50    5.2   138     14.8   817.7    0.00     122    59.5
 142   14:10   52.3    59    8.1   209     17.0   817.8    0.00     142    59.5
 142   14:20   50.7    65    6.1   212     13.1   817.8    0.00     162    59.5
 142   14:30   51.2    62    3.4   204      5.8   817.7    0.00     214    59.6
 142   14:40   52.8    54    2.5   192      5.6   817.7    0.00     319    59.6
 142   14:50   54.2    46    2.6   163      8.3   817.9    0.00     282    59.6
 142   15:00   53.4    49    5.0   152     12.4   818.0    0.00      97    59.6
 142   15:10   50.1    65    4.3   156     12.1   818.4    0.00      58    59.6
 142   15:20   48.9    71    2.8   177      8.4   818.9    0.00      31    59.6
 142   15:30   48.7    70    2.4   118      5.9   819.0    0.00      29    59.6
 142   15:40   48.1    71    2.3   137      9.6   819.1    0.01      30    59.6
 142   15:50   47.9    71    2.0   274      5.0   819.2    0.00      37    59.5
 142   16:00   47.2    69    1.8   300      5.0   819.2    0.03      43    59.5
 142   16:10   46.6    76    2.9   268      5.5   819.2    0.01      48    59.5
 142   16:20   46.1    82    1.4   276      3.5   819.2    0.00      47    59.5
 142   16:30   45.8    81    3.5   233      6.9   819.1    0.00      43    59.4
 142   16:40   45.4    82    4.3   227      8.3   818.9    0.01      56    59.3
 142   16:50   45.5    83    5.1   228     10.0   818.7    0.00     111    59.3
 142   17:00   45.6    82    5.5   228     10.7   818.6    0.00     169    59.2
 142   17:10   46.0    82    5.2   221     11.3   818.9    0.00     211    59.1
 142   17:20   46.6    80    5.3   224      9.3   819.0    0.00     274    59.1
 142   17:30   47.2    78    5.2   230     10.1   819.1    0.00     219    59.0
 142   17:40   46.9    78    3.9   237      7.2   819.1    0.00     128    58.9
 142   17:50   46.7    77    4.5   230      9.1   819.1    0.00      75    58.9
 142   18:00   46.5    76    3.5   264      7.7   819.1    0.00      60    58.8
 142   18:10   46.4    76    3.8   272     11.0   819.2    0.00      43    58.7
 142   18:20   46.1    76    4.2   266     10.4   819.3    0.00      38    58.7
 142   18:30   45.9    76    3.9   270      8.3   819.4    0.00      23    58.6
 142   18:40   45.8    76    3.0   265      6.0   819.5    0.00      22    58.6
 142   18:50   45.6    77    2.7   260      5.6   819.5    0.00      20    58.5
 142   19:00   45.7    77    2.8   222      4.8   819.5    0.00      19    58.4
 142   19:10   45.6    78    1.9   219      4.6   819.6    0.00      10    58.3
 142   19:20   45.6    77    2.1   217      3.7   819.6    0.00       4    58.2
 142   19:30   45.4    76    2.0   218      4.1   819.8    0.00       0    58.2
 142   19:40   45.4    76    1.8   211      2.9   819.8    0.00       0    58.1
 142   19:50   45.2    78    3.0   211      5.8   819.8    0.00       0    58.1
 142   20:00   45.0    78    2.6   206      5.6   819.8    0.00       0    58.0
 142   20:10   44.6    80    2.2   192      4.0   819.8    0.00       0    57.9
 142   20:20   44.4    81    1.5   200      3.7   819.8    0.00       0    57.8
 142   20:30   44.5    81    0.9   179      2.4   819.7    0.00       0    57.8
 142   20:40   44.6    81    0.5   161      1.9   819.6    0.00       0    57.7
 142   20:50   44.5    80    1.6   205      3.7   819.6    0.00       0    57.6
 142   21:00   44.5    80    1.8   195      3.5   819.6    0.00       0    57.5
 142   21:10   44.5    78    1.0   186      2.9   819.6    0.00       0    57.5
 142   21:20   44.7    79    1.0   176      2.9   819.6    0.00       0    57.4
 142   21:30   44.5    78    1.1   190      3.1   819.6    0.00       0    57.3
 142   21:40   44.6    77    1.0   184      2.6   819.7    0.00       0    57.3
 142   21:50   44.7    76    0.9   158      2.9   819.8    0.00       0    57.2
 142   22:00   44.7    76    1.7   115      2.9   819.8    0.00       0    57.2
 142   22:10   44.7    75    1.0   113      2.2   819.8    0.00       0    57.1
 142   22:20   44.7    76    2.2    92      3.8   819.8    0.00       0    57.1
 142   22:30   44.5    78    2.3   111      3.1   819.7    0.00       0    57.0
 142   22:40   44.6    77    1.8   117      3.1   819.6    0.00       0    56.9
 142   22:50   44.8    77    1.0   122      2.1   819.6    0.00       0    56.9
 142   23:00   45.0    77    1.4    98      2.8   819.5    0.00       0    56.8
 142   23:10   44.9    76    1.5    96      2.4   819.5    0.00       0    56.8
 142   23:20   45.1    77    1.1   211      2.5   819.5    0.00       0    56.7
 142   23:30   45.0    78    1.8   259      4.8   819.6    0.00       0    56.7
 142   23:40   44.6    82    2.7   224      4.7   819.6    0.00       0    56.6
 142   23:50   44.2    86    2.7   228      5.5   819.7    0.00       0    56.5
 143    0:00   43.9    87    2.6   224      5.6   819.8    0.01       0    56.5
 143    0:10   43.8    88    2.0   226      4.3   819.9    0.01       0    56.4
 143    0:20   43.5    89    3.3   224      7.0   819.9    0.01       0    56.4
 143    0:30   43.4    90    3.6   212      6.9   819.9    0.02       0    56.4
 143    0:40   43.2    91    3.5   197      8.1   819.9    0.02       0    56.3
 143    0:50   42.7    90    2.0   155      4.6   819.8    0.01       0    56.2
 143    1:00   42.2    89    2.9   121      6.1   819.8    0.00       0    56.2
 143    1:10   42.2    88    2.4   102      3.8   819.6    0.02       0    56.1
 143    1:20   42.4    87    1.3    48      2.6   819.6    0.00       0    56.1
 143    1:30   42.3    85    3.8    81      7.1   819.6    0.00       0    56.0
 143    1:40   42.5    82    3.9    93      8.8   819.6    0.00       0    55.9
 143    1:50   42.7    81    2.9   105      7.2   819.6    0.00       0    55.9
 143    2:00   42.7    81    3.4    93      4.9   819.5    0.00       0    55.8
 143    2:10   42.6    83    2.7    95      4.5   819.5    0.00       0    55.8
 143    2:20   42.4    83    3.6    98      6.4   819.5    0.00       0    55.7
 143    2:30   42.2    83    3.4   108      6.8   819.5    0.00       0    55.6
 143    2:40   42.1    83    3.8    85      6.9   819.5    0.00       0    55.6
 143    2:50   42.2    83    3.3    96      5.7   819.4    0.00       0    55.5
 143    3:00   42.3    83    2.7    96      4.7   819.4    0.00       0    55.5
 143    3:10   42.4    83    2.5   109      4.4   819.4    0.00       0    55.4
 143    3:20   42.6    84    1.6   128      3.8   819.4    0.00       0    55.4
 143    3:30   43.0    84    0.8    60      2.3   819.4    0.00       0    55.3
 143    3:40   42.7    84    2.2    70      3.3   819.4    0.00       0    55.3
 143    3:50   42.8    84    1.8   102      2.9   819.4    0.00       0    55.3
 143    4:00   43.0    85    1.1   121      2.0   819.4    0.00       0    55.2
 143    4:10   43.2    86    1.0   161      2.0   819.3    0.00       0    55.1
 143    4:20   43.4    87    1.8   199      3.2   819.2    0.00       0    55.1
 143    4:30   43.4    87    1.5   206      3.7   819.2    0.00       0    55.1
 143    4:40   43.5    88    1.1   208      3.0   819.2    0.00       0    55.0
 143    4:50   43.4    88    1.6   206      3.3   819.2    0.00       0    55.0
 143    5:00   43.5    87    2.2   212      5.8   819.1    0.00       0    54.9
 143    5:10   43.3    87    2.8   219      5.8   819.1    0.00       0    54.9
 143    5:20   43.2    88    3.5   223      6.2   819.1    0.00       2    54.8
 143    5:30   43.2    87    3.4   221      7.7   819.1    0.00       3    54.8
 143    5:40   43.2    87    2.5   230      3.9   819.2    0.00       3    54.8
 143    5:50   43.1    86    2.8   234      4.9   819.2    0.00       3    54.7
 143    6:00   43.1    87    2.9   222      5.9   819.4    0.00       8    54.7
 143    6:10   43.0    86    3.8   224      6.9   819.4    0.00      14    54.6
 143    6:20   43.1    86    4.1   208      7.6   819.5    0.00      29    54.6
 143    6:30   43.2    86    3.2   208      5.6   819.5    0.00      49    54.6
 143    6:40   43.3    85    3.9   212      8.0   819.6    0.00      44    54.5
 143    6:50   43.3    85    3.1   221      6.1   819.7    0.00      25    54.4
 143    7:00   43.5    84    2.3   222      5.1   819.7    0.00      32    54.4
 143    7:10   43.9    84    3.1   222      5.9   819.6    0.00      77    54.4
 143    7:20   44.2    84    3.4   209      6.2   819.6    0.00     111    54.3
 143    7:30   44.5    84    1.8   202      4.2   819.8    0.00      86    54.3
 143    7:40   44.4    81    2.7   213      5.2   819.9    0.00      90    54.3
 143    7:50   44.9    80    2.4   204      5.8   819.9    0.00     120    54.2
 143    8:00   45.2    79    3.4   223      6.7   820.0    0.00     149    54.2
 143    8:10   45.1    80    3.3   233      6.4   820.0    0.00     120    54.2
 143    8:20   45.1    80    2.8   197      5.6   820.0    0.00     104    54.2
 143    8:30   45.6    78    3.0   203      7.6   819.9    0.00     187    54.2
 143    8:40   46.4    77    2.9   210      6.9   820.0    0.00     158    54.2
 143    8:50   46.1    76    5.0   227      9.2   820.0    0.00     169    54.2
 143    9:00   46.3    77    4.6   217      9.9   819.9    0.00     210    54.2
 143    9:10   46.7    78    4.8   218      8.6   820.0    0.00     197    54.2
 143    9:20   46.7    78    5.2   217      9.8   820.0    0.00     212    54.2
 143    9:30   46.8    75    5.8   218     10.2   820.1    0.00     203    54.2

Return to Cedar City, Utah graphs page.


Western Regional Climate Center,wrcc@dri.edu